createdAt,value
2018-07-14T00:02:01.513Z,2.6
2018-07-14T00:07:01.374Z,2.6
2018-07-14T00:12:01.434Z,2.5
2018-07-14T00:17:01.385Z,2.4
2018-07-14T00:22:01.440Z,2.6
2018-07-14T00:27:01.425Z,2.6
2018-07-14T00:32:06.441Z,2.5
2018-07-14T00:37:06.402Z,2.2
2018-07-14T00:42:01.495Z,2.2
2018-07-14T00:47:01.466Z,1.9
2018-07-14T00:52:01.418Z,1.8
2018-07-14T00:57:01.411Z,1.6
2018-07-14T01:02:01.551Z,1.4
2018-07-14T01:07:06.462Z,1.2
2018-07-14T01:12:01.475Z,1.2
2018-07-14T01:17:06.384Z,1.0
2018-07-14T01:22:06.452Z,1.0
2018-07-14T01:28:01.376Z,0.8
2018-07-14T01:33:06.437Z,0.9
2018-07-14T01:38:01.382Z,0.8
2018-07-14T01:43:06.447Z,0.8
2018-07-14T01:48:01.370Z,0.8
2018-07-14T01:58:01.408Z,0.8
2018-07-14T02:03:01.468Z,0.9
2018-07-14T02:18:01.479Z,0.6
2018-07-14T02:28:01.557Z,0.5
2018-07-14T02:39:01.437Z,0.7
2018-07-14T02:44:06.444Z,0.7
2018-07-14T02:54:01.456Z,0.8
2018-07-14T03:10:01.435Z,0.6
2018-07-14T03:15:01.447Z,0.4
2018-07-14T03:20:01.442Z,0.2
2018-07-14T03:25:01.381Z,0.1
2018-07-14T03:30:01.505Z,0.0
2018-07-14T03:35:01.380Z,0.0
2018-07-14T03:45:01.462Z,0.2
2018-07-14T03:50:01.523Z,0.2
2018-07-14T03:55:01.381Z,0.4
2018-07-14T04:00:01.511Z,0.4
2018-07-14T04:05:01.377Z,0.6
2018-07-14T04:10:01.504Z,0.4
2018-07-14T04:15:01.379Z,0.6
2018-07-14T04:26:01.524Z,0.4
2018-07-14T04:31:01.504Z,0.2
2018-07-14T04:36:01.375Z,0.4
2018-07-14T04:46:01.440Z,0.2
2018-07-14T04:51:01.461Z,0.5
2018-07-14T04:56:01.381Z,0.6
2018-07-14T05:01:01.449Z,0.4
2018-07-14T05:11:01.433Z,0.8
2018-07-14T05:16:06.380Z,0.5
2018-07-14T05:21:06.577Z,0.4
2018-07-14T05:26:06.392Z,0.4
2018-07-14T05:31:06.517Z,0.1
2018-07-14T05:36:01.425Z,0.0
2018-07-14T05:42:06.508Z,0.0
2018-07-14T05:52:06.687Z,0.1
2018-07-14T05:57:06.383Z,0.1
2018-07-14T06:02:06.507Z,0.1
2018-07-14T06:07:06.388Z,0.1
2018-07-14T06:17:06.366Z,0.2
2018-07-14T06:22:06.439Z,0.4
2018-07-14T06:27:06.369Z,0.4
2018-07-14T06:37:01.441Z,0.4
2018-07-14T06:42:01.453Z,0.2
2018-07-14T06:47:01.373Z,0.0
2018-07-14T06:53:01.435Z,0.0
2018-07-14T06:58:01.386Z,0.0
2018-07-14T07:03:01.436Z,0.0
2018-07-14T07:13:01.516Z,0.0
2018-07-14T07:23:06.386Z,0.0
2018-07-14T07:33:01.371Z,0.0
2018-07-14T07:43:01.402Z,0.1
2018-07-14T07:48:01.376Z,0.1
2018-07-14T08:03:01.379Z,0.1
2018-07-14T08:08:01.375Z,0.0
2018-07-14T08:13:01.374Z,0.0
2018-07-14T08:18:01.373Z,0.0
2018-07-14T08:33:01.381Z,0.0
2018-07-14T08:38:01.535Z,0.0
2018-07-14T08:44:01.374Z,0.0
2018-07-14T08:49:01.373Z,0.0
2018-07-14T09:04:01.387Z,0.0
2018-07-14T09:14:01.389Z,0.0
2018-07-14T09:29:01.373Z,0.0
2018-07-14T09:34:01.410Z,0.1
2018-07-14T09:39:01.456Z,0.1
2018-07-14T09:54:01.455Z,0.1
2018-07-14T09:59:06.402Z,0.0
2018-07-14T10:14:01.384Z,0.0
2018-07-14T10:19:01.386Z,0.0
2018-07-14T10:29:01.670Z,0.0
2018-07-14T10:44:01.381Z,0.0
2018-07-14T10:54:02.413Z,0.0
2018-07-14T11:04:01.433Z,0.0
2018-07-14T11:14:01.380Z,0.0
2018-07-14T11:19:01.373Z,0.0
2018-07-14T11:24:01.391Z,0.2
2018-07-14T11:29:01.393Z,0.2
2018-07-14T11:39:01.443Z,0.2
2018-07-14T11:49:01.474Z,0.1
2018-07-14T12:04:01.472Z,0.4
2018-07-14T12:09:02.431Z,0.3
2018-07-14T12:14:01.396Z,0.3
2018-07-14T12:19:01.394Z,0.3
2018-07-14T12:24:01.365Z,0.3
2018-07-14T12:29:01.367Z,0.4
2018-07-14T12:34:01.433Z,0.6
2018-07-14T12:39:01.380Z,0.8
2018-07-14T12:44:06.384Z,0.8
2018-07-14T12:49:06.387Z,1.1
2018-07-14T12:54:06.378Z,0.9
2018-07-14T13:04:06.390Z,0.6
2018-07-14T13:19:01.374Z,0.0
2018-07-14T13:24:01.378Z,0.2
2018-07-14T13:29:01.399Z,0.2
2018-07-14T13:34:06.390Z,0.3
2018-07-14T13:39:01.531Z,0.6
2018-07-14T13:44:01.408Z,0.7
2018-07-14T13:54:01.405Z,0.5
2018-07-14T14:04:06.473Z,0.6
2018-07-14T14:09:06.513Z,1.0
2018-07-14T14:14:01.444Z,1.1
2018-07-14T14:19:01.415Z,1.2
2018-07-14T14:24:01.565Z,1.2
2018-07-14T14:29:01.372Z,1.0
2018-07-14T14:34:01.387Z,0.9
2018-07-14T14:39:01.444Z,1.0
2018-07-14T14:44:01.372Z,1.2
2018-07-14T14:49:01.450Z,1.1
2018-07-14T14:54:01.382Z,1.3
2018-07-14T15:05:01.448Z,1.2
2018-07-14T15:10:06.446Z,1.4
2018-07-14T15:15:01.375Z,1.4
2018-07-14T15:20:01.377Z,1.3
2018-07-14T15:25:01.388Z,1.3
2018-07-14T15:30:01.480Z,1.4
2018-07-14T15:35:01.369Z,1.3
2018-07-14T15:45:01.387Z,1.2
2018-07-14T15:50:01.378Z,1.4
2018-07-14T15:55:06.377Z,1.6
2018-07-14T16:00:06.421Z,1.6
2018-07-14T16:05:01.383Z,1.9
2018-07-14T16:15:01.373Z,1.9
2018-07-14T16:20:01.372Z,1.6
2018-07-14T16:25:01.374Z,1.6
2018-07-14T16:30:01.383Z,1.5
2018-07-14T16:35:06.380Z,1.9
2018-07-14T16:40:01.428Z,1.9
2018-07-14T16:45:01.424Z,2.0
2018-07-14T16:50:01.623Z,2.0
2018-07-14T16:56:01.368Z,2.1
2018-07-14T17:01:01.373Z,2.0
2018-07-14T17:06:01.377Z,2.0
2018-07-14T17:11:06.439Z,2.0
2018-07-14T17:16:01.427Z,2.2
2018-07-14T17:21:01.422Z,2.5
2018-07-14T17:26:06.368Z,2.7
2018-07-14T17:31:01.421Z,2.9
2018-07-14T17:36:01.482Z,3.0
2018-07-14T17:41:01.410Z,2.8
2018-07-14T17:51:01.380Z,2.8
2018-07-14T18:02:01.374Z,2.8
2018-07-14T18:07:01.372Z,2.8
2018-07-14T18:12:01.376Z,2.7
2018-07-14T18:17:06.394Z,2.6
2018-07-14T18:22:01.377Z,2.8
2018-07-14T18:27:01.404Z,2.9
2018-07-14T18:37:01.373Z,3.0
2018-07-14T18:42:01.371Z,2.9
2018-07-14T18:47:01.383Z,2.5
2018-07-14T18:52:01.379Z,2.4
2018-07-14T18:57:01.376Z,2.6
2018-07-14T19:02:01.384Z,2.7
2018-07-14T19:07:01.387Z,2.9
2018-07-14T19:12:01.390Z,3.2
2018-07-14T19:22:01.374Z,3.1
2018-07-14T19:27:01.387Z,3.0
2018-07-14T19:32:01.387Z,3.1
2018-07-14T19:37:01.381Z,3.0
2018-07-14T19:45:00.547Z,2.0
2018-07-14T19:50:00.780Z,3.2
2018-07-14T19:55:00.751Z,3.1
2018-07-14T20:00:01.323Z,3.2
2018-07-14T20:05:01.294Z,3.1
2018-07-14T20:10:01.364Z,3.1
2018-07-14T20:15:01.352Z,3.1
2018-07-14T20:20:01.304Z,3.2
2018-07-14T20:25:01.308Z,3.4
2018-07-14T20:40:00.865Z,4.0
2018-07-14T20:45:00.870Z,4.1
2018-07-14T20:50:00.870Z,4.1
2018-07-14T21:00:00.872Z,3.9
2018-07-14T21:05:00.874Z,4.0
2018-07-14T21:10:00.872Z,3.9
2018-07-14T21:15:00.908Z,3.7
2018-07-14T21:20:00.908Z,3.9
2018-07-14T21:25:00.908Z,3.9
2018-07-14T21:30:00.921Z,3.8
2018-07-14T21:40:00.987Z,4.1
2018-07-14T21:45:00.884Z,4.3
2018-07-14T21:50:00.893Z,4.5
2018-07-14T21:55:00.889Z,4.6
2018-07-14T22:00:00.892Z,4.6
2018-07-14T22:05:00.892Z,4.9
2018-07-14T22:10:00.892Z,4.7
2018-07-14T22:15:01.103Z,4.7
2018-07-14T22:20:00.913Z,4.8
2018-07-14T22:25:00.915Z,4.6
2018-07-14T22:30:00.898Z,4.4
2018-07-14T22:40:00.911Z,4.6
2018-07-14T22:45:00.898Z,4.4
2018-07-14T22:50:00.899Z,4.6
2018-07-14T22:55:00.904Z,4.8
2018-07-14T23:00:00.909Z,4.7
2018-07-14T23:05:00.917Z,4.6
2018-07-14T23:10:00.937Z,4.6
2018-07-14T23:15:00.911Z,4.6
2018-07-14T23:25:00.946Z,4.7
2018-07-14T23:30:00.917Z,5.2
2018-07-14T23:35:00.945Z,5.4
2018-07-14T23:40:00.949Z,5.5
2018-07-14T23:45:00.921Z,5.8
2018-07-14T23:50:00.959Z,5.7
